Methoni, Greece
Current Conditions -  °F | °C
As of 2:50 AM on Tuesday 23 Dec 2014 (Local Time) from LGKL Reporting Station
NA  
Wind Chill:   Ceiling: NA
Heat Index:   Visibility: NA
Dew Point:   Wind: 6mph
Humidity: 87%   Direction: 330°NNW
Pressure: 30.33"   Gusts: NA
Location:  36.82°N, 21.7°E
Report Text: LGKL 222350Z AUTO 33005KT 290V350 //// // ////// 07/05 Q1027 RE//
Loading
Personal Weather Stations






























Interactive Weather Map New forecast layout! Learn more

10-Day Weather Forecast

Advertisements
Track Severe Weather on mobile